createdAt,value
2023-03-17T00:01:44.581Z,5.10
2023-03-17T00:04:12.978Z,5.10
2023-03-17T00:06:41.280Z,5.10
2023-03-17T00:09:17.496Z,5.10
2023-03-17T00:11:45.675Z,5.20
2023-03-17T00:14:12.591Z,5.20
2023-03-17T00:16:46.979Z,5.20
2023-03-17T00:19:36.252Z,5.20
2023-03-17T00:22:06.275Z,5.10
2023-03-17T00:24:33.538Z,5.20
2023-03-17T00:27:00.800Z,5.00
2023-03-17T00:29:28.147Z,4.90
2023-03-17T00:32:00.219Z,4.90
2023-03-17T00:34:28.376Z,4.90
2023-03-17T00:36:56.092Z,4.80
2023-03-17T00:39:27.209Z,4.80
2023-03-17T00:41:54.583Z,4.80
2023-03-17T00:44:21.229Z,4.90
2023-03-17T00:46:47.979Z,4.90
2023-03-17T00:49:21.021Z,4.90
2023-03-17T00:51:49.665Z,4.90
2023-03-17T00:54:17.671Z,4.80
2023-03-17T00:56:45.628Z,4.90
2023-03-17T00:59:20.844Z,4.90
2023-03-17T01:01:48.144Z,4.80
2023-03-17T01:04:15.597Z,4.70
2023-03-17T01:06:46.058Z,4.70
2023-03-17T01:09:18.465Z,4.70
2023-03-17T01:11:45.220Z,4.70
2023-03-17T01:14:12.488Z,4.70
2023-03-17T01:16:39.928Z,4.70
2023-03-17T01:19:06.874Z,4.90
2023-03-17T01:21:33.635Z,4.90
2023-03-17T01:24:00.581Z,4.90
2023-03-17T01:26:27.715Z,4.70
2023-03-17T01:28:54.692Z,4.70
2023-03-17T01:31:23.034Z,4.60
2023-03-17T01:33:53.903Z,4.70
2023-03-17T01:36:22.075Z,4.80
2023-03-17T01:38:50.673Z,4.70
2023-03-17T01:41:20.631Z,4.80
2023-03-17T01:43:47.349Z,4.90
2023-03-17T01:46:29.235Z,5.00
2023-03-17T01:48:58.916Z,4.90
2023-03-17T01:51:44.126Z,4.80
2023-03-17T01:54:19.761Z,4.80
2023-03-17T01:56:49.997Z,4.90
2023-03-17T01:59:22.693Z,4.80
2023-03-17T02:01:52.755Z,4.70
2023-03-17T02:04:20.748Z,4.80
2023-03-17T02:06:57.962Z,4.80
2023-03-17T02:09:27.519Z,4.90
2023-03-17T02:11:55.500Z,4.80
2023-03-17T02:14:22.203Z,4.90
2023-03-17T02:16:49.350Z,4.70
2023-03-17T02:19:16.951Z,4.80
2023-03-17T02:21:47.602Z,4.80
2023-03-17T02:24:23.692Z,4.80
2023-03-17T02:26:53.933Z,4.90
2023-03-17T02:29:22.676Z,4.90
2023-03-17T02:31:49.606Z,5.00
2023-03-17T02:34:17.045Z,4.90
2023-03-17T02:36:44.123Z,4.90
2023-03-17T02:39:11.279Z,5.00
2023-03-17T02:41:38.275Z,4.90
2023-03-17T02:44:05.040Z,5.00
2023-03-17T02:46:31.965Z,5.10
2023-03-17T02:49:01.948Z,5.20
2023-03-17T02:51:29.127Z,5.20
2023-03-17T02:53:55.981Z,5.10
2023-03-17T02:56:32.791Z,5.30
2023-03-17T02:59:03.208Z,5.10
2023-03-17T03:01:30.849Z,5.20
2023-03-17T03:04:01.441Z,5.10
2023-03-17T03:06:28.671Z,4.90
2023-03-17T03:08:55.808Z,5.00
2023-03-17T03:11:23.151Z,5.00
2023-03-17T03:13:49.825Z,5.20
2023-03-17T03:16:17.122Z,5.30
2023-03-17T03:18:43.924Z,5.30
2023-03-17T03:21:10.716Z,5.30
2023-03-17T03:23:37.393Z,5.30
2023-03-17T03:26:04.219Z,5.30
2023-03-17T03:28:31.100Z,5.20
2023-03-17T03:30:57.882Z,5.10
2023-03-17T03:33:24.598Z,5.20
2023-03-17T03:35:51.358Z,5.20
2023-03-17T03:38:18.257Z,5.20
2023-03-17T03:40:45.005Z,5.00
2023-03-17T03:43:22.372Z,4.80
2023-03-17T03:45:49.347Z,4.80
2023-03-17T03:48:16.739Z,4.70
2023-03-17T03:50:43.613Z,4.80
2023-03-17T03:53:10.632Z,4.70
2023-03-17T03:55:37.545Z,4.70
2023-03-17T03:58:04.722Z,4.70
2023-03-17T04:00:32.199Z,4.60
2023-03-17T04:03:00.220Z,4.60
2023-03-17T04:05:26.915Z,4.70
2023-03-17T04:07:53.662Z,4.80
2023-03-17T04:10:20.604Z,4.70
2023-03-17T04:12:47.368Z,4.70
2023-03-17T04:15:16.145Z,4.60
2023-03-17T04:17:43.704Z,4.40
2023-03-17T04:20:12.187Z,4.40
2023-03-17T04:22:39.301Z,4.40
2023-03-17T04:25:06.443Z,4.30
2023-03-17T04:27:33.146Z,4.40
2023-03-17T04:29:59.826Z,4.30
2023-03-17T04:32:27.325Z,4.00
2023-03-17T04:34:54.098Z,3.90
2023-03-17T04:37:20.748Z,4.00
2023-03-17T04:39:48.072Z,4.00
2023-03-17T04:42:14.921Z,4.00
2023-03-17T04:44:42.919Z,3.90
2023-03-17T04:47:09.856Z,3.80
2023-03-17T04:49:36.848Z,3.80
2023-03-17T04:52:03.783Z,3.90
2023-03-17T04:54:30.846Z,3.80
2023-03-17T04:56:58.130Z,3.90
2023-03-17T04:59:24.789Z,3.90
2023-03-17T05:01:51.519Z,4.00
2023-03-17T05:04:30.712Z,3.80
2023-03-17T05:07:02.773Z,3.50
2023-03-17T05:09:29.475Z,3.50
2023-03-17T05:11:56.193Z,3.40
2023-03-17T05:14:23.496Z,3.30
2023-03-17T05:16:51.041Z,3.40
2023-03-17T05:19:18.359Z,3.40
2023-03-17T05:21:45.362Z,3.20
2023-03-17T05:24:12.034Z,3.20
2023-03-17T05:26:40.603Z,3.20
2023-03-17T05:29:07.458Z,3.20
2023-03-17T05:31:36.637Z,3.20
2023-03-17T05:34:04.312Z,3.10
2023-03-17T05:36:31.965Z,3.10
2023-03-17T05:38:58.649Z,3.00
2023-03-17T05:41:25.617Z,2.90
2023-03-17T05:43:52.269Z,3.00
2023-03-17T05:46:20.423Z,2.90
2023-03-17T05:48:47.641Z,2.90
2023-03-17T05:51:14.606Z,3.10
2023-03-17T05:53:41.665Z,3.10
2023-03-17T05:56:09.162Z,3.10
2023-03-17T05:58:35.902Z,3.20
2023-03-17T06:01:02.543Z,3.20
2023-03-17T06:03:29.220Z,3.20
2023-03-17T06:05:55.833Z,3.30
2023-03-17T06:08:23.016Z,3.40
2023-03-17T06:10:49.662Z,3.40
2023-03-17T06:13:16.469Z,3.40
2023-03-17T06:15:52.181Z,3.30
2023-03-17T06:18:19.849Z,3.30
2023-03-17T06:20:46.853Z,3.40
2023-03-17T06:23:13.659Z,3.50
2023-03-17T06:25:40.317Z,3.60
2023-03-17T06:28:07.045Z,3.70
2023-03-17T06:30:35.382Z,3.80
2023-03-17T06:33:02.613Z,3.70
2023-03-17T06:35:30.815Z,3.50
2023-03-17T06:37:57.912Z,3.50
2023-03-17T06:40:24.558Z,3.70
2023-03-17T06:42:51.496Z,3.80
2023-03-17T06:45:18.204Z,3.60
2023-03-17T06:47:44.891Z,3.80
2023-03-17T06:50:12.116Z,3.80
2023-03-17T06:52:39.707Z,3.60
2023-03-17T06:55:08.453Z,3.70
2023-03-17T06:57:36.350Z,3.70
2023-03-17T07:00:06.493Z,3.80
2023-03-17T07:02:33.665Z,3.90
2023-03-17T07:05:00.789Z,3.90
2023-03-17T07:07:28.163Z,4.00
2023-03-17T07:09:54.867Z,4.10
2023-03-17T07:12:21.888Z,4.10
2023-03-17T07:14:48.595Z,4.30
2023-03-17T07:17:15.755Z,4.20
2023-03-17T07:19:42.439Z,4.30
2023-03-17T07:22:12.090Z,4.40
2023-03-17T07:24:39.527Z,4.50
2023-03-17T07:27:06.308Z,4.60
2023-03-17T07:29:33.915Z,4.70
2023-03-17T07:32:01.278Z,4.80
2023-03-17T07:34:28.833Z,4.90
2023-03-17T07:36:55.491Z,5.00
2023-03-17T07:39:22.379Z,5.00
2023-03-17T07:41:53.016Z,5.30
2023-03-17T07:44:19.853Z,5.50
2023-03-17T07:46:46.589Z,5.70
2023-03-17T07:49:13.354Z,5.90
2023-03-17T07:51:43.009Z,6.00
2023-03-17T07:54:14.841Z,6.20
2023-03-17T07:56:42.962Z,6.30
2023-03-17T07:59:10.777Z,6.30
2023-03-17T08:01:38.274Z,6.50
2023-03-17T08:04:16.789Z,6.60
2023-03-17T08:07:01.597Z,6.80
2023-03-17T08:09:28.579Z,7.00
2023-03-17T08:11:55.242Z,7.40
2023-03-17T08:14:21.893Z,7.60
2023-03-17T08:16:48.761Z,7.60
2023-03-17T08:19:16.283Z,7.60
2023-03-17T08:21:42.988Z,7.70
2023-03-17T08:24:11.510Z,7.70
2023-03-17T08:26:38.140Z,7.80
2023-03-17T08:29:05.316Z,7.90
2023-03-17T08:31:33.801Z,8.00
2023-03-17T08:34:02.551Z,8.00
2023-03-17T08:36:29.577Z,8.00
2023-03-17T08:38:56.782Z,8.20
2023-03-17T08:41:24.950Z,8.50
2023-03-17T08:43:51.655Z,8.70
2023-03-17T08:46:30.250Z,8.90
2023-03-17T08:48:58.511Z,8.90
2023-03-17T08:51:28.354Z,9.00
2023-03-17T08:53:55.526Z,8.90
2023-03-17T08:56:22.773Z,8.90
2023-03-17T08:58:50.656Z,8.90
2023-03-17T09:01:18.516Z,9.00
2023-03-17T09:03:45.586Z,9.20
2023-03-17T09:06:13.439Z,9.30
2023-03-17T09:08:44.705Z,9.20
2023-03-17T09:11:14.827Z,9.30
2023-03-17T09:13:42.015Z,9.40
2023-03-17T09:16:11.761Z,9.40
2023-03-17T09:18:39.064Z,9.60
2023-03-17T09:21:07.581Z,9.80
2023-03-17T09:23:34.515Z,9.90
2023-03-17T09:26:02.177Z,10.10
2023-03-17T09:28:29.136Z,10.20
2023-03-17T09:31:01.168Z,10.30
2023-03-17T09:33:28.543Z,10.40
2023-03-17T09:35:59.081Z,10.60
2023-03-17T09:38:27.441Z,10.70
2023-03-17T09:41:05.260Z,11.00
2023-03-17T09:43:37.072Z,11.10
2023-03-17T09:46:38.591Z,11.30
2023-03-17T09:49:13.874Z,11.20
2023-03-17T09:51:43.001Z,11.00
2023-03-17T09:54:31.281Z,10.90
2023-03-17T09:57:06.191Z,10.90
2023-03-17T09:59:40.369Z,11.20
2023-03-17T10:02:23.771Z,11.60
2023-03-17T10:04:50.586Z,11.90
2023-03-17T10:07:23.380Z,12.10
2023-03-17T10:10:20.209Z,12.60
2023-03-17T10:13:09.388Z,13.40
2023-03-17T10:15:45.847Z,14.30
2023-03-17T10:18:15.010Z,15.20
2023-03-17T10:20:51.828Z,15.70
2023-03-17T10:23:23.678Z,16.00
2023-03-17T10:25:50.324Z,16.40
2023-03-17T10:28:32.501Z,17.20
2023-03-17T10:31:11.185Z,18.30
2023-03-17T10:33:38.120Z,19.70
2023-03-17T10:36:14.827Z,20.70
2023-03-17T10:38:41.549Z,21.60
2023-03-17T10:41:13.384Z,22.60
2023-03-17T10:43:45.702Z,23.60
2023-03-17T10:46:24.220Z,24.20
2023-03-17T10:49:06.037Z,24.70
2023-03-17T10:51:36.726Z,25.30
2023-03-17T10:54:17.579Z,26.40
2023-03-17T10:56:48.564Z,27.30
2023-03-17T10:59:20.163Z,27.60
2023-03-17T11:01:52.856Z,27.10
2023-03-17T11:04:42.449Z,27.30
2023-03-17T11:07:21.236Z,27.80
2023-03-17T11:09:52.463Z,28.20
2023-03-17T11:12:36.487Z,28.20
2023-03-17T11:15:08.100Z,28.30
2023-03-17T11:17:55.922Z,28.00
2023-03-17T11:20:45.935Z,27.70
2023-03-17T11:23:33.225Z,27.20
2023-03-17T11:26:32.044Z,26.90
2023-03-17T11:29:23.832Z,26.60
2023-03-17T11:32:04.002Z,25.50
2023-03-17T11:34:58.639Z,25.10
2023-03-17T11:37:37.367Z,24.40
2023-03-17T11:40:18.177Z,24.50
2023-03-17T11:43:13.294Z,24.40
2023-03-17T11:46:08.870Z,24.30
2023-03-17T11:48:57.405Z,24.10
2023-03-17T11:51:59.565Z,24.00
2023-03-17T11:55:00.926Z,23.90
2023-03-17T11:57:46.541Z,23.50
2023-03-17T12:00:16.972Z,23.30
2023-03-17T12:03:00.153Z,23.10
2023-03-17T12:05:29.888Z,22.90
2023-03-17T12:08:12.686Z,22.20
2023-03-17T12:10:45.934Z,21.40
2023-03-17T12:13:21.781Z,21.30
2023-03-17T12:16:06.634Z,21.30
2023-03-17T12:19:07.082Z,20.80
2023-03-17T12:21:50.323Z,20.40
2023-03-17T12:24:31.357Z,20.10
2023-03-17T12:27:05.869Z,19.90
2023-03-17T12:29:49.747Z,19.80
2023-03-17T12:32:35.371Z,19.80
2023-03-17T12:35:33.055Z,20.00
2023-03-17T12:38:02.856Z,20.30
2023-03-17T12:40:41.378Z,20.40
2023-03-17T12:43:26.098Z,20.70
2023-03-17T12:46:31.314Z,20.60
2023-03-17T12:49:17.936Z,20.80
2023-03-17T12:51:47.609Z,21.00
2023-03-17T12:54:27.742Z,21.00
2023-03-17T12:57:02.616Z,21.00
2023-03-17T12:59:31.150Z,20.50
2023-03-17T13:02:21.843Z,20.50
2023-03-17T13:05:00.947Z,20.40
2023-03-17T13:07:51.182Z,20.60
2023-03-17T13:10:37.285Z,20.60
2023-03-17T13:13:06.057Z,20.90
2023-03-17T13:15:36.154Z,21.10
2023-03-17T13:18:18.397Z,21.20
2023-03-17T13:20:45.577Z,21.30
2023-03-17T13:23:15.700Z,21.60
2023-03-17T13:25:42.912Z,21.40
2023-03-17T13:28:12.734Z,21.40
2023-03-17T13:30:39.484Z,21.40
2023-03-17T13:33:11.826Z,21.50
2023-03-17T13:35:45.792Z,21.60
2023-03-17T13:38:35.382Z,21.50
2023-03-17T13:41:17.216Z,21.60
2023-03-17T13:44:12.797Z,21.50
2023-03-17T13:46:41.610Z,21.80
2023-03-17T13:49:19.449Z,21.80
2023-03-17T13:52:01.798Z,21.50
2023-03-17T13:54:28.706Z,21.50
2023-03-17T13:57:18.691Z,21.60
2023-03-17T13:59:57.483Z,21.40
2023-03-17T14:02:28.902Z,21.10
2023-03-17T14:05:06.266Z,21.10
2023-03-17T14:07:52.857Z,21.10
2023-03-17T14:10:22.109Z,21.00
2023-03-17T14:13:06.597Z,21.00
2023-03-17T14:16:11.502Z,20.70
2023-03-17T14:18:47.364Z,20.60
2023-03-17T14:21:33.856Z,20.60
2023-03-17T14:24:04.226Z,20.50
2023-03-17T14:26:32.235Z,20.50
2023-03-17T14:29:00.820Z,20.30
2023-03-17T14:31:29.532Z,20.00
2023-03-17T14:34:00.959Z,19.90
2023-03-17T14:36:32.755Z,19.90
2023-03-17T14:38:59.403Z,20.00
2023-03-17T14:41:28.273Z,19.90
2023-03-17T14:43:59.606Z,19.70
2023-03-17T14:46:32.731Z,19.50
2023-03-17T14:49:17.785Z,19.40
2023-03-17T14:51:45.273Z,19.30
2023-03-17T14:54:20.528Z,19.30
2023-03-17T14:57:02.216Z,19.20
2023-03-17T14:59:35.474Z,19.10
2023-03-17T15:02:24.140Z,19.10
2023-03-17T15:04:58.047Z,19.00
2023-03-17T15:07:51.742Z,18.90
2023-03-17T15:10:31.054Z,18.80
2023-03-17T15:13:01.987Z,18.80
2023-03-17T15:15:34.234Z,18.70
2023-03-17T15:18:10.474Z,18.80
2023-03-17T15:20:37.385Z,18.80
2023-03-17T15:23:25.230Z,18.80
2023-03-17T15:25:57.549Z,18.60
2023-03-17T15:28:33.235Z,18.50
2023-03-17T15:31:13.160Z,18.40
2023-03-17T15:33:42.029Z,18.30
2023-03-17T15:36:25.619Z,18.20
2023-03-17T15:38:57.794Z,18.20
2023-03-17T15:41:24.728Z,18.10
2023-03-17T15:43:51.357Z,18.00
2023-03-17T15:46:25.357Z,17.90
2023-03-17T15:48:52.034Z,17.90
2023-03-17T15:51:18.708Z,17.90
2023-03-17T15:53:47.239Z,17.70
2023-03-17T15:56:18.811Z,17.70
2023-03-17T15:58:48.020Z,17.60
2023-03-17T16:01:16.335Z,17.50
2023-03-17T16:03:45.371Z,17.50
2023-03-17T16:06:16.294Z,17.40
2023-03-17T16:08:43.078Z,17.30
2023-03-17T16:11:18.976Z,17.30
2023-03-17T16:13:47.427Z,17.10
2023-03-17T16:16:21.624Z,17.00
2023-03-17T16:18:50.980Z,17.00
2023-03-17T16:21:19.081Z,16.80
2023-03-17T16:23:46.740Z,16.70
2023-03-17T16:26:15.976Z,16.50
2023-03-17T16:28:45.410Z,16.30
2023-03-17T16:31:19.139Z,16.30
2023-03-17T16:33:47.551Z,16.10
2023-03-17T16:36:20.646Z,16.10
2023-03-17T16:38:47.995Z,16.00
2023-03-17T16:41:27.795Z,15.80
2023-03-17T16:44:00.223Z,15.70
2023-03-17T16:46:31.317Z,15.60
2023-03-17T16:49:13.301Z,15.60
2023-03-17T16:51:47.400Z,15.40
2023-03-17T16:54:19.674Z,15.20
2023-03-17T16:56:47.710Z,15.20
2023-03-17T16:59:20.230Z,15.30
2023-03-17T17:01:47.221Z,15.10
2023-03-17T17:04:13.860Z,15.00
2023-03-17T17:06:54.778Z,14.90
2023-03-17T17:09:21.519Z,14.80
2023-03-17T17:11:48.349Z,14.70
2023-03-17T17:14:17.140Z,14.60
2023-03-17T17:16:44.120Z,14.50
2023-03-17T17:19:17.878Z,14.50
2023-03-17T17:21:45.322Z,14.40
2023-03-17T17:24:13.467Z,14.30
2023-03-17T17:26:41.349Z,14.30
2023-03-17T17:29:12.093Z,14.40
2023-03-17T17:31:38.913Z,14.20
2023-03-17T17:34:05.615Z,14.10
2023-03-17T17:36:32.510Z,13.90
2023-03-17T17:38:59.207Z,13.80
2023-03-17T17:41:25.889Z,13.90
2023-03-17T17:43:53.669Z,14.00
2023-03-17T17:46:22.568Z,13.80
2023-03-17T17:48:50.027Z,13.80
2023-03-17T17:51:16.746Z,13.70
2023-03-17T17:53:44.025Z,13.90
2023-03-17T17:56:17.898Z,13.80
2023-03-17T17:58:44.952Z,13.70
2023-03-17T18:01:13.819Z,13.60
2023-03-17T18:03:42.689Z,13.40
2023-03-17T18:06:09.656Z,13.40
2023-03-17T18:08:36.370Z,13.20
2023-03-17T18:11:03.444Z,13.00
2023-03-17T18:13:30.169Z,13.00
2023-03-17T18:15:57.041Z,13.20
2023-03-17T18:18:24.739Z,13.10
2023-03-17T18:20:54.078Z,13.10
2023-03-17T18:23:21.749Z,13.00
2023-03-17T18:25:49.262Z,12.80
2023-03-17T18:28:17.113Z,12.70
2023-03-17T18:30:44.923Z,12.90
2023-03-17T18:33:17.959Z,12.80
2023-03-17T18:35:47.478Z,12.80
2023-03-17T18:38:14.286Z,12.90
2023-03-17T18:40:42.178Z,12.80
2023-03-17T18:43:08.862Z,12.70
2023-03-17T18:45:35.798Z,12.60
2023-03-17T18:48:02.525Z,12.70
2023-03-17T18:50:29.229Z,12.70
2023-03-17T18:52:56.507Z,12.60
2023-03-17T18:55:23.318Z,12.60
2023-03-17T18:57:50.050Z,12.50
2023-03-17T19:00:18.528Z,12.50
2023-03-17T19:02:46.210Z,12.50
2023-03-17T19:05:13.012Z,12.30
2023-03-17T19:07:40.968Z,12.30
2023-03-17T19:10:09.740Z,12.30
2023-03-17T19:12:37.183Z,12.30
2023-03-17T19:15:06.113Z,12.30
2023-03-17T19:17:33.181Z,12.10
2023-03-17T19:19:59.999Z,11.90
2023-03-17T19:22:27.562Z,11.80
2023-03-17T19:24:54.305Z,11.80
2023-03-17T19:27:21.276Z,11.80
2023-03-17T19:29:47.978Z,11.80
2023-03-17T19:32:16.087Z,11.80
2023-03-17T19:34:43.078Z,11.70
2023-03-17T19:37:09.937Z,11.60
2023-03-17T19:39:37.696Z,11.60
2023-03-17T19:42:04.809Z,11.60
2023-03-17T19:44:31.620Z,11.50
2023-03-17T19:46:58.326Z,11.60
2023-03-17T19:49:26.056Z,11.60
2023-03-17T19:51:52.676Z,11.70
2023-03-17T19:54:23.411Z,11.60
2023-03-17T19:56:50.300Z,11.50
2023-03-17T19:59:19.609Z,11.30
2023-03-17T20:01:50.398Z,11.30
2023-03-17T20:04:19.476Z,11.20
2023-03-17T20:06:55.070Z,11.30
2023-03-17T20:09:26.866Z,11.10
2023-03-17T20:11:54.419Z,10.90
2023-03-17T20:14:21.517Z,10.90
2023-03-17T20:16:49.097Z,10.90
2023-03-17T20:19:16.459Z,10.90
2023-03-17T20:21:43.547Z,10.90
2023-03-17T20:24:12.694Z,10.80
2023-03-17T20:26:41.057Z,11.00
2023-03-17T20:29:08.414Z,11.00
2023-03-17T20:31:35.866Z,10.80
2023-03-17T20:34:02.576Z,10.80
2023-03-17T20:36:29.206Z,10.80
2023-03-17T20:38:56.059Z,10.90
2023-03-17T20:41:22.699Z,10.70
2023-03-17T20:43:49.392Z,10.70
2023-03-17T20:46:21.636Z,10.60
2023-03-17T20:48:48.718Z,10.50
2023-03-17T20:51:16.631Z,10.40
2023-03-17T20:53:48.913Z,10.40
2023-03-17T20:56:18.713Z,10.30
2023-03-17T20:58:47.038Z,10.30
2023-03-17T21:01:15.298Z,10.10
2023-03-17T21:03:43.241Z,10.20
2023-03-17T21:06:10.497Z,10.30
2023-03-17T21:08:38.685Z,10.40
2023-03-17T21:11:07.989Z,10.20
2023-03-17T21:13:35.290Z,10.20
2023-03-17T21:16:02.534Z,10.20
2023-03-17T21:18:29.713Z,10.20
2023-03-17T21:20:56.839Z,10.00
2023-03-17T21:23:23.748Z,9.90
2023-03-17T21:25:55.871Z,9.90
2023-03-17T21:28:22.911Z,9.90
2023-03-17T21:30:50.146Z,9.90
2023-03-17T21:33:16.798Z,9.80
2023-03-17T21:35:43.571Z,9.60
2023-03-17T21:38:10.276Z,9.50
2023-03-17T21:40:37.149Z,9.70
2023-03-17T21:43:04.176Z,9.60
2023-03-17T21:45:31.337Z,9.40
2023-03-17T21:47:58.006Z,9.40
2023-03-17T21:50:24.661Z,9.10
2023-03-17T21:52:51.351Z,9.00
2023-03-17T21:55:18.179Z,9.00
2023-03-17T21:57:44.842Z,9.00
2023-03-17T22:00:12.405Z,9.00
2023-03-17T22:02:39.722Z,9.00
2023-03-17T22:05:07.088Z,9.00
2023-03-17T22:07:34.166Z,9.00
2023-03-17T22:10:01.426Z,9.00
2023-03-17T22:12:28.687Z,9.00
2023-03-17T22:14:58.571Z,9.00
2023-03-17T22:17:25.820Z,9.10
2023-03-17T22:19:53.995Z,9.20
2023-03-17T22:22:21.160Z,9.40
2023-03-17T22:24:48.360Z,9.40
2023-03-17T22:27:16.783Z,9.20
2023-03-17T22:29:44.199Z,9.10
2023-03-17T22:32:10.989Z,8.90
2023-03-17T22:34:38.041Z,8.80
2023-03-17T22:37:05.187Z,8.90
2023-03-17T22:39:31.938Z,8.80
2023-03-17T22:41:58.590Z,8.80
2023-03-17T22:44:25.260Z,8.70
2023-03-17T22:46:51.945Z,8.70
2023-03-17T22:49:18.622Z,8.70
2023-03-17T22:51:47.482Z,8.80
2023-03-17T22:54:14.135Z,8.90
2023-03-17T22:56:40.885Z,9.00
2023-03-17T22:59:07.599Z,9.00
2023-03-17T23:01:34.307Z,8.90
2023-03-17T23:04:01.923Z,8.90
2023-03-17T23:06:28.787Z,9.00
2023-03-17T23:08:55.929Z,8.80
2023-03-17T23:11:25.386Z,8.70
2023-03-17T23:13:52.843Z,8.70
2023-03-17T23:16:20.198Z,8.90
2023-03-17T23:18:47.194Z,8.80
2023-03-17T23:21:31.093Z,8.70
2023-03-17T23:23:58.558Z,8.70
2023-03-17T23:26:25.522Z,8.60
2023-03-17T23:28:52.586Z,8.50
2023-03-17T23:31:22.104Z,8.50
2023-03-17T23:33:50.386Z,8.30
2023-03-17T23:36:17.925Z,8.30
2023-03-17T23:38:45.429Z,8.30
2023-03-17T23:41:13.117Z,8.40
2023-03-17T23:43:40.920Z,8.50
2023-03-17T23:46:08.267Z,8.60
2023-03-17T23:48:35.008Z,8.50
2023-03-17T23:51:02.822Z,8.60
2023-03-17T23:53:29.549Z,8.70
2023-03-17T23:55:56.272Z,8.50
2023-03-17T23:58:23.049Z,8.40
